Time;durP1;ratioP1;P1;durP2;ratioP2;P2;SDS_P1;SDS_P2;PMS_P1;PMS_P2;Temp;Humidity;BMP_temperature;BMP_pressure;BME280_temperature;BME280_humidity;BME280_pressure;Samples;Min_cycle;Max_cycle;Signal;HPM_P1;HPM_P2
2023/10/09 05:14:11;;;;;;;;;;;;;;;14.36;100.00;101884.34;5524478;23;19933;-96
2023/10/09 05:17:15;;;;;;;;;;;;;;;14.35;100.00;101893.97;4893693;29;20020;-96
2023/10/09 05:28:48;;;;;;;;;;;;;;;14.37;100.00;101897.50;4982358;23;19928;-96
2023/10/09 05:34:22;;;;;;;;;;;;;;;14.39;100.00;101918.50;4900244;29;19906;-96
2023/10/09 05:38:13;;;;;;;;;;;;;;;;;;;;;
2023/10/09 05:40:30;;;;;;;;;;;;;;;14.40;100.00;101917.66;4884287;29;19916;-96
2023/10/09 07:44:53;;;;;;;;;;;;;;;15.01;100.00;101983.88;5943921;23;19922;-96
2023/10/09 07:50:22;;;;;;;;;;;;;;;14.98;100.00;101973.31;4900148;29;19957;-96
2023/10/09 07:52:51;;;;;;;;;;;;;;;14.99;100.00;101959.34;5331795;23;19963;-96
2023/10/09 07:55:39;;;;;;;;;;;;;;;15.00;100.00;101945.34;4884736;29;20286;-96
2023/10/09 07:58:10;;;;;;;;;;;;;;;15.01;100.00;101936.63;4884289;29;19966;-96
2023/10/09 08:00:36;;;;;;;;;;;;;;;15.02;100.00;101941.03;4885218;29;20384;-96
2023/10/09 08:03:02;;;;;;;;;;;;;;;15.02;100.00;101930.53;4888846;29;19959;-96
2023/10/09 08:05:33;;;;;;;;;;;;;;;15.04;100.00;101925.31;4885878;29;19919;-96
2023/10/09 08:08:18;;;;;;;;;;;;;;;15.05;100.00;101935.88;4884598;29;19915;-96
2023/10/09 08:11:41;;;;;;;;;;;;;;;15.05;100.00;101954.25;4885035;29;19971;-96
2023/10/09 08:13:56;;;;;;;;;;;;;;;15.07;100.00;101963.03;4902588;29;19943;-96
2023/10/09 08:16:35;;;;;;;;;;;;;;;15.11;100.00;101945.63;4886938;29;20002;-96
2023/10/09 08:19:20;;;;;;;;;;;;;;;15.12;100.00;101942.16;4886904;29;20009;-96
2023/10/09 08:22:17;;;;;;;;;;;;;;;15.16;100.00;101961.47;4886293;29;19965;-96
2023/10/09 08:24:56;;;;;;;;;;;;;;;15.20;100.00;101963.31;4900223;29;19935;-96
2023/10/09 08:33:00;;;;;;;;;;;;;;;15.33;100.00;101941.72;4903211;29;19920;-96
2023/10/09 08:35:43;;;;;;;;;;;;;;;;;;;;;
2023/10/09 08:53:48;;;;;;;;;;;;;;;15.77;100.00;101926.00;5468561;23;19941;-96
2023/10/09 08:56:25;;;;;;;;;;;;;;;15.84;100.00;101924.38;4900450;29;19979;-96
2023/10/09 08:59:02;;;;;;;;;;;;;;;15.93;100.00;101929.84;4899902;29;19919;-96
2023/10/09 09:01:31;;;;;;;;;;;;;;;16.00;100.00;101922.94;4899985;29;19978;-96
2023/10/09 09:03:59;;;;;;;;;;;;;;;16.07;100.00;101923.94;4900641;29;19967;-96
2023/10/09 09:06:43;;;;;;;;;;;;;;;16.28;100.00;101928.69;4901501;29;19904;-96
2023/10/09 09:09:14;;;;;;;;;;;;;;;16.29;100.00;101935.72;4898967;29;19920;-96
2023/10/09 09:11:48;;;;;;;;;;;;;;;16.31;100.00;101932.28;4902554;29;19916;-96
2023/10/09 09:14:34;;;;;;;;;;;;;;;16.37;100.00;101959.56;4901790;29;19923;-96
2023/10/09 09:20:31;;;;;;;;;;;;;;;16.56;100.00;101966.00;4903469;29;20294;-96
2023/10/09 09:23:28;;;;;;;;;;;;;;;16.58;100.00;101978.31;4902065;29;19899;-96
2023/10/09 09:26:18;;;;;;;;;;;;;;;16.61;100.00;101978.38;4903169;29;19919;-96
2023/10/09 09:28:56;;;;;;;;;;;;;;;16.67;100.00;101974.97;4902454;29;20362;-96
2023/10/09 09:31:37;;;;;;;;;;;;;;;16.75;100.00;101965.44;4901922;29;19926;-96
2023/10/09 09:34:18;;;;;;;;;;;;;;;16.77;100.00;101973.34;4904522;29;19906;-96
2023/10/09 09:37:29;;;;;;;;;;;;;;;16.83;100.00;101989.28;4888397;29;20028;-96
2023/10/09 09:43:21;;;;;;;;;;;;;;;16.90;100.00;101995.53;4921005;29;19967;-96
2023/10/09 09:46:02;;;;;;;;;;;;;;;16.96;100.00;101998.25;4900831;29;19920;-96
2023/10/09 09:48:32;;;;;;;;;;;;;;;17.06;100.00;101999.28;4901793;29;19939;-96
2023/10/09 09:51:13;;;;;;;;;;;;;;;17.16;100.00;101999.47;4900213;29;19911;-96
2023/10/09 09:53:52;;;;;;;;;;;;;;;17.19;100.00;101999.50;4904429;29;20429;-96
2023/10/09 09:56:40;;;;;;;;;;;;;;;17.15;100.00;102005.59;4922367;29;19915;-96
2023/10/09 09:59:13;;;;;;;;;;;;;;;17.18;100.00;102005.63;4921243;29;19919;-96
2023/10/09 10:01:56;;;;;;;;;;;;;;;17.21;100.00;102000.41;4921292;29;19933;-96
2023/10/09 10:04:37;;;;;;;;;;;;;;;17.35;100.00;101997.06;4917790;29;19961;-96
2023/10/09 10:07:15;;;;;;;;;;;;;;;17.39;100.00;101998.91;4919096;29;19930;-96
2023/10/09 10:09:45;;;;;;;;;;;;;;;17.44;100.00;102002.50;4920287;29;19911;-96
2023/10/09 10:12:11;;;;;;;;;;;;;;;17.59;100.00;102007.06;4915816;29;19915;-96
2023/10/09 10:14:59;;;;;;;;;;;;;;;17.56;100.00;101992.09;4914063;29;19939;-96
2023/10/09 10:17:30;;;;;;;;;;;;;;;17.51;100.00;102004.34;4907580;29;19998;-96
2023/10/09 10:30:26;;;;;;;;;;;;;;;17.70;100.00;101999.31;4951399;23;19934;-96
2023/10/09 10:33:08;;;;;;;;;;;;;;;;;;;;;
2023/10/09 10:35:46;;;;;;;;;;;;;;;17.77;100.00;102000.25;4915400;29;19970;-96
2023/10/09 10:40:46;;;;;;;;;;;;;;;17.88;100.00;102004.78;4934258;23;19927;-96
2023/10/09 10:43:33;;;;;;;;;;;;;;;17.87;100.00;101997.78;4911672;29;19943;-96
2023/10/09 10:49:36;;;;;;;;;;;;;;;17.98;100.00;101979.47;4932459;29;19926;-96
2023/10/09 10:51:52;;;;;;;;;;;;;;;18.04;100.00;101984.78;4923782;29;20396;-96
2023/10/09 10:57:32;;;;;;;;;;;;;;;18.17;100.00;101991.09;4930368;29;19922;-96
2023/10/09 11:01:03;;;;;;;;;;;;;;;18.21;100.00;101989.38;4918667;29;19951;-96
2023/10/09 11:03:13;;;;;;;;;;;;;;;18.30;100.00;101985.94;4920091;29;19970;-96
2023/10/09 11:05:42;;;;;;;;;;;;;;;18.39;100.00;101999.22;4904157;29;20067;-96
2023/10/09 11:08:15;;;;;;;;;;;;;;;18.43;100.00;101998.38;4871924;29;19971;-96
2023/10/09 11:10:49;;;;;;;;;;;;;;;18.41;100.00;101995.75;4885416;29;20048;-96
2023/10/09 11:13:37;;;;;;;;;;;;;;;18.44;100.00;102000.16;4889577;29;19923;-96
2023/10/09 11:18:51;;;;;;;;;;;;;;;18.59;100.00;102005.56;4893775;29;19970;-96
2023/10/09 11:21:30;;;;;;;;;;;;;;;18.63;100.00;102005.63;4885114;29;19915;-96
2023/10/09 11:24:23;;;;;;;;;;;;;;;18.80;100.00;101988.16;4885706;29;19919;-96
2023/10/09 11:26:55;;;;;;;;;;;;;;;18.96;99.67;101993.56;4901332;29;19944;-96
2023/10/09 11:29:29;;;;;;;;;;;;;;;19.06;98.88;101987.47;4895917;29;19972;-96
2023/10/09 11:32:14;;;;;;;;;;;;;;;19.04;99.80;101983.94;4873136;29;19916;-96
2023/10/09 11:34:45;;;;;;;;;;;;;;;19.12;97.64;101984.91;4899440;29;19922;-96
2023/10/09 11:37:25;;;;;;;;;;;;;;;19.15;98.07;101984.00;4888887;29;19915;-96
2023/10/09 11:39:56;;;;;;;;;;;;;;;19.17;98.42;101982.28;4885492;29;20032;-96
2023/10/09 11:45:20;;;;;;;;;;;;;;;19.41;96.24;101986.81;4901225;29;19934;-96
2023/10/09 11:48:00;;;;;;;;;;;;;;;19.45;95.50;101991.22;4901159;29;19916;-96
2023/10/09 11:51:18;;;;;;;;;;;;;;;19.48;95.27;101982.44;4900513;29;19916;-96
2023/10/09 11:54:08;;;;;;;;;;;;;;;19.47;96.73;101986.84;4900815;29;19984;-96
2023/10/09 11:56:37;;;;;;;;;;;;;;;19.64;94.26;101992.22;4900800;29;19979;-96
2023/10/09 11:59:08;;;;;;;;;;;;;;;19.55;94.54;101993.06;4899255;29;19919;-96
2023/10/09 12:01:37;;;;;;;;;;;;;;;19.53;94.18;101986.88;4883287;29;19916;-96
2023/10/09 12:04:02;;;;;;;;;;;;;;;19.47;96.16;101986.84;4898592;29;19919;-96
2023/10/09 12:06:32;;;;;;;;;;;;;;;19.59;94.06;101986.91;4884273;29;19938;-96
2023/10/09 12:09:13;;;;;;;;;;;;;;;19.52;94.38;101994.81;4884678;29;19916;-96
2023/10/09 12:11:43;;;;;;;;;;;;;;;19.62;93.59;101993.97;4885910;29;20224;-96
2023/10/09 12:14:10;;;;;;;;;;;;;;;19.51;94.86;101988.63;4884311;29;20070;-96
2023/10/09 12:16:46;;;;;;;;;;;;;;;19.51;94.98;101988.63;4889651;29;19994;-96
2023/10/09 12:19:12;;;;;;;;;;;;;;;19.48;95.86;101978.06;4884107;29;20389;-96
2023/10/09 12:21:42;;;;;;;;;;;;;;;19.60;93.85;101978.09;4888731;29;19915;-96
2023/10/09 12:24:11;;;;;;;;;;;;;;;19.56;94.14;101989.53;4884192;29;19951;-96
2023/10/09 12:26:48;;;;;;;;;;;;;;;19.51;95.18;101980.72;4899718;29;19986;-96
2023/10/09 12:29:16;;;;;;;;;;;;;;;19.58;93.80;101974.56;4872820;29;19934;-96
2023/10/09 12:31:45;;;;;;;;;;;;;;;19.50;94.40;101975.41;4884069;29;19915;-96
2023/10/09 12:34:15;;;;;;;;;;;;;;;19.47;95.23;101973.63;4883757;29;19916;-96
2023/10/09 12:36:45;;;;;;;;;;;;;;;19.56;94.43;101975.44;4875865;29;19921;-96
2023/10/09 12:39:19;;;;;;;;;;;;;;;19.57;94.42;101970.16;4899196;29;19996;-97
2023/10/09 13:52:53;;;;;;;;;;;;;;;20.38;89.55;101949.19;1292096;23;20198;-95
2023/10/09 13:55:33;;;;;;;;;;;;;;;20.39;89.29;101948.31;4894208;29;19956;-96
2023/10/09 13:58:05;;;;;;;;;;;;;;;20.43;89.80;101945.69;4896364;29;19928;-96
2023/10/09 14:00:42;;;;;;;;;;;;;;;20.43;90.01;101956.25;4886288;29;19919;-96
2023/10/09 14:03:13;;;;;;;;;;;;;;;20.50;90.69;101942.16;4887506;29;20369;-96
2023/10/09 14:05:51;;;;;;;;;;;;;;;20.58;90.12;101947.47;4882431;29;19927;-96
2023/10/09 14:08:17;;;;;;;;;;;;;;;20.63;88.55;101950.09;4851169;29;19927;-96
2023/10/09 14:10:48;;;;;;;;;;;;;;;20.56;89.66;101949.22;4854533;29;19920;-96
2023/10/09 14:13:14;;;;;;;;;;;;;;;20.58;88.42;101949.22;4893055;29;19916;-96
2023/10/09 14:15:46;;;;;;;;;;;;;;;20.50;88.79;101944.78;4894721;29;19922;-96
2023/10/09 14:18:14;;;;;;;;;;;;;;;20.48;88.85;101941.28;4881813;29;19926;-96
2023/10/09 14:20:41;;;;;;;;;;;;;;;20.51;87.98;101943.06;4879125;29;19915;-96
2023/10/09 15:37:40;;;;;;;;;;;;;;;19.98;86.98;101934.16;3531367;23;19923;-96
2023/10/09 15:40:23;;;;;;;;;;;;;;;20.02;86.84;101937.72;4919853;29;19951;-96
2023/10/09 16:25:09;;;;;;;;;;;;;;;19.85;89.96;101951.78;4963533;23;19981;-95
2023/10/09 16:27:34;;;;;;;;;;;;;;;19.81;90.35;101952.63;4936927;29;19915;-96
2023/10/09 16:30:05;;;;;;;;;;;;;;;19.74;90.31;101948.16;4921883;29;19921;-96
2023/10/09 16:32:31;;;;;;;;;;;;;;;19.67;90.39;101952.56;4922559;29;19918;-96
2023/10/09 16:34:58;;;;;;;;;;;;;;;19.64;90.70;101958.72;4932350;29;20014;-96
2023/10/09 16:37:24;;;;;;;;;;;;;;;19.59;90.82;101957.81;4911645;29;20460;-96
2023/10/09 16:39:54;;;;;;;;;;;;;;;19.55;91.05;101969.28;4922117;29;19990;-96
2023/10/09 16:42:23;;;;;;;;;;;;;;;19.50;91.41;101971.00;4932060;29;19926;-96
2023/10/09 16:44:49;;;;;;;;;;;;;;;19.44;91.14;101974.50;4930777;29;20451;-96
2023/10/09 16:47:16;;;;;;;;;;;;;;;19.39;91.45;101978.00;4913725;29;19927;-96
2023/10/09 16:49:51;;;;;;;;;;;;;;;19.30;91.36;101978.81;4926746;29;19926;-96
2023/10/09 16:52:18;;;;;;;;;;;;;;;19.19;91.85;101976.13;4911722;29;19920;-95
2023/10/09 16:55:01;;;;;;;;;;;;;;;19.13;92.03;101986.63;4917868;29;19956;-95
2023/10/09 16:57:27;;;;;;;;;;;;;;;19.04;91.91;101991.88;4919699;29;20388;-95
2023/10/09 16:59:57;;;;;;;;;;;;;;;18.97;92.27;101993.56;4910792;29;19986;-96
2023/10/09 17:02:27;;;;;;;;;;;;;;;18.91;92.21;102002.34;4919334;29;19923;-96
2023/10/09 17:04:55;;;;;;;;;;;;;;;18.84;92.71;102005.81;4920474;29;19918;-96
2023/10/09 17:07:24;;;;;;;;;;;;;;;18.78;92.68;102005.72;4922215;29;19915;-96
2023/10/09 17:09:50;;;;;;;;;;;;;;;18.72;92.80;102005.69;4920410;29;19989;-96
2023/10/09 17:12:18;;;;;;;;;;;;;;;18.64;92.76;102024.13;4918246;29;19923;-95
2023/10/09 17:14:43;;;;;;;;;;;;;;;18.57;93.28;102017.00;4918498;29;19919;-95
2023/10/09 17:17:11;;;;;;;;;;;;;;;18.52;93.13;102019.56;4928996;29;19926;-96
2023/10/09 17:19:40;;;;;;;;;;;;;;;18.44;93.25;102010.72;4918842;29;19915;-95
2023/10/09 17:22:12;;;;;;;;;;;;;;;18.41;93.41;102014.22;4932653;29;20376;-95
2023/10/09 17:24:39;;;;;;;;;;;;;;;18.38;93.61;102021.22;4923185;29;20615;-96
2023/10/09 17:27:08;;;;;;;;;;;;;;;18.32;93.66;102013.22;4916001;29;19942;-96
2023/10/09 17:29:36;;;;;;;;;;;;;;;18.28;93.76;102019.34;4912087;29;19919;-95
2023/10/09 17:32:01;;;;;;;;;;;;;;;18.21;93.63;102024.56;4915649;29;20288;-96
2023/10/09 17:34:31;;;;;;;;;;;;;;;18.15;94.23;102018.34;4910191;29;19970;-95
2023/10/09 17:36:59;;;;;;;;;;;;;;;18.10;93.89;102010.34;4916856;29;19915;-95
2023/10/09 17:39:29;;;;;;;;;;;;;;;18.08;94.41;102009.47;4907759;29;19973;-96
2023/10/09 17:41:55;;;;;;;;;;;;;;;18.01;94.57;102008.50;4915199;29;19912;-96
2023/10/09 17:44:25;;;;;;;;;;;;;;;17.98;94.88;102010.22;4916720;29;19934;-96
2023/10/09 17:46:55;;;;;;;;;;;;;;;17.98;95.00;102024.28;4921046;29;19966;-95
2023/10/09 17:49:28;;;;;;;;;;;;;;;17.94;94.91;102022.47;4907606;29;19919;-96
2023/10/09 17:51:53;;;;;;;;;;;;;;;17.89;94.83;102025.03;4913797;29;20444;-95
2023/10/09 17:54:23;;;;;;;;;;;;;;;17.86;94.91;102030.28;4907511;29;20027;-95
2023/10/09 17:56:52;;;;;;;;;;;;;;;17.82;94.84;102030.22;4914884;29;19922;-95
2023/10/09 17:59:18;;;;;;;;;;;;;;;17.76;95.05;102030.16;4899387;29;19949;-96
2023/10/09 18:04:18;;;;;;;;;;;;;;;17.64;95.15;102033.50;5047206;23;20392;-96
2023/10/09 18:06:59;;;;;;;;;;;;;;;17.60;95.19;102029.03;4919909;29;19919;-96
2023/10/09 18:09:30;;;;;;;;;;;;;;;17.52;95.35;102034.22;4913763;29;19939;-96
2023/10/09 18:12:01;;;;;;;;;;;;;;;17.49;95.41;102035.03;4920053;29;19915;-96
2023/10/09 18:14:30;;;;;;;;;;;;;;;17.49;95.62;102036.81;4919599;29;19915;-96
2023/10/09 18:17:00;;;;;;;;;;;;;;;17.49;95.41;102031.53;4919957;29;19915;-96
2023/10/09 18:19:38;;;;;;;;;;;;;;;17.44;95.69;102025.31;4919803;29;19914;-96
2023/10/09 18:22:04;;;;;;;;;;;;;;;17.37;96.00;102033.13;4919727;29;19915;-96
2023/10/09 18:24:29;;;;;;;;;;;;;;;17.34;96.40;102035.72;4919384;29;19926;-96
2023/10/09 18:26:57;;;;;;;;;;;;;;;17.29;96.59;102029.53;4910616;29;20331;-96
2023/10/09 18:29:30;;;;;;;;;;;;;;;17.26;96.65;102034.72;4910380;29;19915;-95
2023/10/09 18:32:02;;;;;;;;;;;;;;;17.21;97.17;102032.00;4919655;29;19915;-96
2023/10/09 18:34:31;;;;;;;;;;;;;;;17.14;96.84;102034.53;4911127;29;19930;-96
2023/10/09 18:36:59;;;;;;;;;;;;;;;17.09;97.26;102042.38;4911820;29;19923;-96
2023/10/09 18:39:24;;;;;;;;;;;;;;;17.08;97.14;102039.72;4910944;29;19915;-96
2023/10/09 18:41:53;;;;;;;;;;;;;;;17.04;97.17;102039.63;4919765;29;20360;-96
2023/10/09 18:44:19;;;;;;;;;;;;;;;17.03;97.18;102037.91;4907313;29;19919;-96
2023/10/09 18:46:47;;;;;;;;;;;;;;;17.00;97.09;102032.59;4881552;29;20026;-96
2023/10/09 18:49:13;;;;;;;;;;;;;;;16.93;96.88;102046.50;4893368;29;20375;-96
2023/10/09 18:51:44;;;;;;;;;;;;;;;16.81;97.10;102046.25;4900206;29;19915;-95
2023/10/09 18:54:12;;;;;;;;;;;;;;;16.73;97.47;102047.84;4921774;29;19919;-96
2023/10/09 18:56:40;;;;;;;;;;;;;;;16.68;97.61;102053.03;4921216;29;19915;-96
2023/10/09 18:59:08;;;;;;;;;;;;;;;16.68;97.89;102053.03;4923490;29;19915;-96
2023/10/09 19:01:35;;;;;;;;;;;;;;;16.68;97.80;102055.69;4909506;29;19919;-96
2023/10/09 19:04:01;;;;;;;;;;;;;;;16.65;97.82;102055.63;4922972;29;19927;-95
2023/10/09 19:06:28;;;;;;;;;;;;;;;16.60;98.07;102049.41;4924512;29;19974;-95
2023/10/09 19:08:55;;;;;;;;;;;;;;;16.56;98.14;102044.94;4908753;29;19915;-95
2023/10/09 19:11:23;;;;;;;;;;;;;;;16.51;98.08;102050.09;4938022;29;19967;-96
2023/10/09 19:13:49;;;;;;;;;;;;;;;16.48;98.15;102055.31;4922919;29;19954;-96
2023/10/09 19:16:17;;;;;;;;;;;;;;;16.41;98.49;102050.78;4917631;29;19919;-96
2023/10/09 19:18:42;;;;;;;;;;;;;;;16.37;98.77;102052.50;4903073;29;20002;-96
2023/10/09 19:21:10;;;;;;;;;;;;;;;16.35;98.77;102054.19;4903228;29;20086;-96
2023/10/09 19:23:47;;;;;;;;;;;;;;;16.34;99.01;102057.69;4890892;29;19915;-96
2023/10/09 19:26:17;;;;;;;;;;;;;;;16.33;98.96;102059.41;4900538;29;19998;-96
2023/10/09 19:28:43;;;;;;;;;;;;;;;16.32;98.96;102062.94;4894062;29;19915;-96
2023/10/09 19:31:12;;;;;;;;;;;;;;;16.30;98.83;102058.50;4888160;29;19923;-95
2023/10/09 19:33:38;;;;;;;;;;;;;;;16.26;98.96;102062.78;4902639;29;20293;-96
2023/10/09 19:36:11;;;;;;;;;;;;;;;16.22;98.80;102062.69;4892260;29;19919;-96
2023/10/09 19:38:37;;;;;;;;;;;;;;;16.09;98.79;102059.84;4901796;29;19915;-96
2023/10/09 19:41:02;;;;;;;;;;;;;;;16.05;99.21;102051.84;4902798;29;19922;-95
2023/10/09 19:43:30;;;;;;;;;;;;;;;16.04;99.24;102058.84;4898284;29;19919;-95
2023/10/09 19:46:05;;;;;;;;;;;;;;;16.02;99.36;102054.41;4885907;29;19966;-95
2023/10/09 19:48:34;;;;;;;;;;;;;;;16.02;99.22;102057.03;4903064;29;19926;-95
2023/10/09 19:51:12;;;;;;;;;;;;;;;15.99;99.39;102065.78;4900197;29;19915;-96
2023/10/09 19:53:40;;;;;;;;;;;;;;;16.00;99.59;102064.91;4913098;29;19943;-95
2023/10/09 19:56:13;;;;;;;;;;;;;;;15.98;99.41;102061.34;4903308;29;19915;-94
2023/10/09 19:58:41;;;;;;;;;;;;;;;15.95;99.17;102062.19;4911548;29;19915;-96
2023/10/09 20:01:13;;;;;;;;;;;;;;;15.91;99.46;102062.97;4886958;29;19919;-96
2023/10/09 20:03:39;;;;;;;;;;;;;;;15.92;99.63;102062.13;4899087;29;20378;-94
2023/10/09 20:06:05;;;;;;;;;;;;;;;15.90;99.50;102069.09;4912179;29;19978;-96
2023/10/09 20:08:35;;;;;;;;;;;;;;;15.88;99.47;102070.78;4899670;29;19927;-95
2023/10/09 20:11:09;;;;;;;;;;;;;;;15.86;99.33;102068.97;4919692;29;19919;-96
2023/10/09 20:13:35;;;;;;;;;;;;;;;15.83;99.44;102069.81;4921713;29;20288;-95
2023/10/09 20:16:01;;;;;;;;;;;;;;;15.80;99.39;102070.63;4907398;29;19915;-95
2023/10/09 20:18:30;;;;;;;;;;;;;;;15.79;99.44;102060.09;4911433;29;19915;-95
2023/10/09 20:20:59;;;;;;;;;;;;;;;15.76;99.44;102068.75;4904188;29;19915;-95
2023/10/09 20:23:26;;;;;;;;;;;;;;;15.73;99.82;102075.66;4920617;29;19974;-95
2023/10/09 20:26:02;;;;;;;;;;;;;;;15.70;99.48;102067.72;4920045;29;19919;-95
2023/10/09 20:28:27;;;;;;;;;;;;;;;15.67;99.69;102065.94;4921491;29;19919;-95
2023/10/09 20:31:01;;;;;;;;;;;;;;;15.65;100.00;102073.75;4907594;29;20412;-95
2023/10/09 20:33:34;;;;;;;;;;;;;;;15.62;99.92;102073.69;4898641;29;19927;-95
2023/10/09 20:36:12;;;;;;;;;;;;;;;15.62;99.85;102072.81;4916694;29;20291;-96
2023/10/09 20:38:40;;;;;;;;;;;;;;;15.59;99.82;102072.75;4921031;29;19915;-96
2023/10/09 20:41:12;;;;;;;;;;;;;;;15.51;99.70;102083.09;4920706;29;19915;-96
2023/10/09 20:43:41;;;;;;;;;;;;;;;15.47;100.00;102079.50;4920951;29;19921;-95
2023/10/09 20:46:07;;;;;;;;;;;;;;;15.47;100.00;102071.59;4921024;29;20351;-95
2023/10/09 20:48:37;;;;;;;;;;;;;;;15.45;100.00;102070.69;4907393;29;19915;-95
2023/10/09 20:51:05;;;;;;;;;;;;;;;15.45;99.83;102075.03;4920860;29;19939;-96
2023/10/09 20:53:34;;;;;;;;;;;;;;;15.43;100.00;102072.38;4916991;29;19954;-95
2023/10/09 20:55:59;;;;;;;;;;;;;;;15.40;100.00;102072.31;4920605;29;20009;-96
2023/10/09 20:58:31;;;;;;;;;;;;;;;15.39;100.00;102078.41;4903622;29;19955;-96
2023/10/09 21:01:01;;;;;;;;;;;;;;;15.39;100.00;102074.91;4896117;29;19945;-96
2023/10/09 21:03:27;;;;;;;;;;;;;;;15.37;100.00;102069.63;4896706;29;19934;-94
2023/10/09 21:05:53;;;;;;;;;;;;;;;15.39;100.00;102059.16;4893638;29;20297;-94
2023/10/09 21:08:20;;;;;;;;;;;;;;;15.38;100.00;102068.78;4907494;29;19926;-94
2023/10/09 21:10:48;;;;;;;;;;;;;;;15.37;100.00;102066.13;4919138;29;19970;-94
2023/10/09 21:13:14;;;;;;;;;;;;;;;15.31;100.00;102072.13;4919475;29;19915;-94
2023/10/09 21:15:40;;;;;;;;;;;;;;;15.25;100.00;102064.06;4903428;29;20019;-96
2023/10/09 21:18:07;;;;;;;;;;;;;;;15.19;100.00;102074.44;4901336;29;19919;-94
2023/10/09 21:20:38;;;;;;;;;;;;;;;15.17;100.00;102070.91;4901101;29;19915;-94
2023/10/09 21:23:06;;;;;;;;;;;;;;;15.12;100.00;102074.28;4901524;29;20449;-95
2023/10/09 21:25:34;;;;;;;;;;;;;;;15.11;100.00;102072.50;4901268;29;19979;-94
2023/10/09 21:27:59;;;;;;;;;;;;;;;15.09;100.00;102065.44;4900397;29;19915;-95
2023/10/09 21:30:31;;;;;;;;;;;;;;;15.07;100.00;102072.41;4901572;29;19922;-95
2023/10/09 21:32:59;;;;;;;;;;;;;;;15.02;100.00;102076.63;4901373;29;20002;-94
2023/10/09 21:35:27;;;;;;;;;;;;;;;14.95;100.00;102076.47;4901519;29;19973;-94
2023/10/09 21:37:54;;;;;;;;;;;;;;;14.85;100.00;102076.22;4900324;29;19915;-95
2023/10/09 21:40:23;;;;;;;;;;;;;;;14.72;100.00;102072.38;4900896;29;19922;-94
2023/10/09 21:42:52;;;;;;;;;;;;;;;14.63;100.00;102069.50;4901043;29;19951;-94
2023/10/09 21:45:18;;;;;;;;;;;;;;;14.62;100.00;102068.63;4900971;29;19928;-94
2023/10/09 21:47:46;;;;;;;;;;;;;;;14.64;100.00;102077.41;4917825;29;19998;-94
2023/10/09 21:50:12;;;;;;;;;;;;;;;14.64;100.00;102072.16;4901155;29;19971;-94
2023/10/09 21:52:40;;;;;;;;;;;;;;;14.64;100.00;102073.91;4900620;29;19994;-95
2023/10/09 21:55:08;;;;;;;;;;;;;;;14.64;100.00;102084.41;4879548;29;19923;-94
2023/10/09 21:57:33;;;;;;;;;;;;;;;14.67;100.00;102081.84;4888162;29;19923;-94
2023/10/09 21:59:59;;;;;;;;;;;;;;;14.67;100.00;102077.53;4894470;29;19911;-94
2023/10/09 22:02:25;;;;;;;;;;;;;;;14.67;100.00;102080.16;4900981;29;19919;-95
2023/10/09 22:04:56;;;;;;;;;;;;;;;14.64;100.00;102081.78;4900853;29;19946;-95
2023/10/09 22:07:21;;;;;;;;;;;;;;;14.60;100.00;102080.78;4900717;29;19915;-95
2023/10/09 22:09:47;;;;;;;;;;;;;;;14.58;100.00;102077.22;4899860;29;19979;-94
2023/10/09 22:12:13;;;;;;;;;;;;;;;14.56;100.00;102074.56;4917562;29;19967;-95
2023/10/09 22:14:39;;;;;;;;;;;;;;;14.53;100.00;102074.47;4900510;29;19923;-94
2023/10/09 22:17:07;;;;;;;;;;;;;;;14.53;100.00;102068.34;4900457;29;19916;-95
2023/10/09 22:19:36;;;;;;;;;;;;;;;14.52;100.00;102069.19;4900180;29;19954;-95
2023/10/09 22:22:09;;;;;;;;;;;;;;;14.50;100.00;102063.91;4900436;29;19975;-95
2023/10/09 22:24:35;;;;;;;;;;;;;;;14.42;100.00;102060.19;4899476;29;20010;-94
2023/10/09 22:27:09;;;;;;;;;;;;;;;14.32;100.00;102064.28;4900014;29;19946;-95
2023/10/09 22:29:35;;;;;;;;;;;;;;;14.29;100.00;102068.56;4900493;29;19915;-94
2023/10/09 22:32:00;;;;;;;;;;;;;;;14.27;100.00;102071.16;4900711;29;19922;-94
2023/10/09 22:34:30;;;;;;;;;;;;;;;14.22;100.00;102063.16;4917250;29;19963;-95
2023/10/09 22:36:56;;;;;;;;;;;;;;;14.10;100.00;102065.41;4900905;29;19915;-95
2023/10/09 22:39:27;;;;;;;;;;;;;;;13.98;100.00;102065.06;4900908;29;20009;-94
2023/10/09 22:41:57;;;;;;;;;;;;;;;13.92;100.00;102052.69;4899277;29;19919;-95
2023/10/09 22:44:25;;;;;;;;;;;;;;;13.94;100.00;102058.84;4900377;29;19971;-94
2023/10/09 22:46:51;;;;;;;;;;;;;;;13.99;100.00;102061.59;4899854;29;20289;-94
2023/10/09 22:49:17;;;;;;;;;;;;;;;14.03;100.00;102056.50;4899618;29;20523;-95
2023/10/09 22:51:49;;;;;;;;;;;;;;;14.03;100.00;102061.75;4899666;29;19916;-94
2023/10/09 22:54:22;;;;;;;;;;;;;;;13.99;100.00;102064.22;4899570;29;20005;-94
2023/10/09 22:56:55;;;;;;;;;;;;;;;13.99;100.00;102065.13;4900202;29;19998;-95
2023/10/09 22:59:20;;;;;;;;;;;;;;;14.01;100.00;102062.53;4899774;29;19915;-95
2023/10/09 23:02:01;;;;;;;;;;;;;;;14.03;100.00;102060.84;4900193;29;19915;-95
2023/10/09 23:04:38;;;;;;;;;;;;;;;14.04;100.00;102060.88;4916745;29;19923;-94
2023/10/09 23:07:14;;;;;;;;;;;;;;;14.06;100.00;102060.94;4900163;29;20004;-94
2023/10/09 23:09:49;;;;;;;;;;;;;;;14.08;100.00;102054.88;4900086;29;19975;-94
2023/10/09 23:12:22;;;;;;;;;;;;;;;14.09;100.00;102058.38;4900055;29;19915;-94
2023/10/09 23:14:49;;;;;;;;;;;;;;;14.09;100.00;102046.19;4900050;29;19949;-95
2023/10/09 23:17:43;;;;;;;;;;;;;;;14.13;100.00;102043.66;4899565;29;19970;-95
2023/10/09 23:20:24;;;;;;;;;;;;;;;14.15;100.00;102049.81;4915555;29;20459;-94
2023/10/09 23:22:49;;;;;;;;;;;;;;;14.17;100.00;102049.03;4899336;29;19920;-94
2023/10/09 23:25:28;;;;;;;;;;;;;;;14.16;100.00;102048.97;4900126;29;19926;-96
2023/10/09 23:28:21;;;;;;;;;;;;;;;14.15;100.00;102049.81;4899825;29;19915;-95
2023/10/09 23:30:52;;;;;;;;;;;;;;;14.13;100.00;102055.00;4900057;29;19982;-95
2023/10/09 23:33:20;;;;;;;;;;;;;;;14.12;100.00;102053.25;4899489;29;19915;-94
2023/10/09 23:35:50;;;;;;;;;;;;;;;14.06;100.00;102047.81;4900061;29;19918;-94
2023/10/09 23:38:30;;;;;;;;;;;;;;;14.01;100.00;102052.06;4899695;29;19915;-94
2023/10/09 23:41:03;;;;;;;;;;;;;;;13.97;100.00;102044.94;4902628;29;20024;-94
2023/10/09 23:43:28;;;;;;;;;;;;;;;13.94;100.00;102055.34;4902707;29;19939;-94
2023/10/09 23:45:57;;;;;;;;;;;;;;;13.88;100.00;102045.56;4919173;29;19919;-95
2023/10/09 23:48:29;;;;;;;;;;;;;;;13.86;100.00;102047.25;4902798;29;19915;-94
2023/10/09 23:51:00;;;;;;;;;;;;;;;13.85;100.00;102038.50;4902721;29;20051;-94
2023/10/09 23:53:46;;;;;;;;;;;;;;;13.83;100.00;102036.66;4902319;29;19915;-94
2023/10/09 23:56:12;;;;;;;;;;;;;;;13.77;100.00;102032.13;4903185;29;20009;-96
2023/10/09 23:58:51;;;;;;;;;;;;;;;13.75;100.00;102025.97;4903054;29;19958;-94
